Time;durP1;ratioP1;P1;durP2;ratioP2;P2;SDS_P1;SDS_P2;PMS_P1;PMS_P2;Temp;Humidity;BMP_temperature;BMP_pressure;BME280_temperature;BME280_humidity;BME280_pressure;Samples;Min_cycle;Max_cycle;Signal;HPM_P1;HPM_P2
2023/04/01 00:02:20;;;;;;;19.77;9.50;;;;;;;;;;5022757;28;20085;-55
2023/04/01 00:04:47;;;;;;;27.58;9.80;;;;;;;;;;5023527;28;20077;-54
2023/04/01 00:07:13;;;;;;;18.33;9.30;;;;;;;;;;5024666;28;20428;-54
2023/04/01 00:09:39;;;;;;;21.80;8.77;;;;;;;;;;5022934;28;20046;-53
2023/04/01 00:12:06;;;;;;;16.90;8.60;;;;;;;;;;5023530;28;20133;-54
2023/04/01 00:14:32;;;;;;;20.25;9.18;;;;;;;;;;5023727;28;20188;-49
2023/04/01 00:16:58;;;;;;;17.00;8.73;;;;;;;;;;5023122;28;20061;-51
2023/04/01 00:19:25;;;;;;;20.60;9.27;;;;;;;;;;5022477;28;20053;-52
2023/04/01 00:21:52;;;;;;;21.83;7.78;;;;;;;;;;5021717;28;20054;-52
2023/04/01 00:24:18;;;;;;;18.85;7.20;;;;;;;;;;5022683;28;20055;-51
2023/04/01 00:26:45;;;;;;;25.50;8.07;;;;;;;;;;5024243;28;20216;-50
2023/04/01 00:29:11;;;;;;;18.27;7.28;;;;;;;;;;5023730;28;20054;-52
2023/04/01 00:31:38;;;;;;;13.90;6.38;;;;;;;;;;5022534;28;20061;-52
2023/04/01 00:34:04;;;;;;;23.27;7.30;;;;;;;;;;5023072;28;20112;-50
2023/04/01 00:36:30;;;;;;;20.55;8.13;;;;;;;;;;5023095;28;20104;-52
2023/04/01 00:38:58;;;;;;;16.50;8.00;;;;;;;;;;5023437;28;20050;-50
2023/04/01 00:41:26;;;;;;;28.88;8.65;;;;;;;;;;5025489;28;20165;-48
2023/04/01 00:43:52;;;;;;;30.13;9.18;;;;;;;;;;5023829;28;20065;-50
2023/04/01 00:46:19;;;;;;;30.25;10.02;;;;;;;;;;5023235;28;20108;-52
2023/04/01 00:48:48;;;;;;;17.27;7.75;;;;;;;;;;5019285;28;20058;-52
2023/04/01 00:51:20;;;;;;;25.02;7.55;;;;;;;;;;5024074;28;20045;-49
2023/04/01 00:53:48;;;;;;;17.77;8.05;;;;;;;;;;5022951;28;20586;-49
2023/04/01 00:56:20;;;;;;;19.13;7.82;;;;;;;;;;5024214;28;20420;-54
2023/04/01 00:58:49;;;;;;;18.75;7.93;;;;;;;;;;5023465;28;20041;-53
2023/04/01 01:01:16;;;;;;;21.48;7.80;;;;;;;;;;5021262;28;20112;-52
2023/04/01 01:03:42;;;;;;;20.73;8.20;;;;;;;;;;5023316;28;20053;-50
2023/04/01 01:06:27;;;;;;;19.75;8.55;;;;;;;;;;5023126;28;20534;-52
2023/04/01 01:09:10;;;;;;;19.30;8.80;;;;;;;;;;5023363;28;20136;-51
2023/04/01 01:11:40;;;;;;;23.63;9.65;;;;;;;;;;5020162;28;20057;-52
2023/04/01 01:14:09;;;;;;;21.73;7.53;;;;;;;;;;5023901;28;20053;-53
2023/04/01 01:16:38;;;;;;;19.05;7.88;;;;;;;;;;5023029;28;20144;-52
2023/04/01 01:19:08;;;;;;;16.17;7.00;;;;;;;;;;5020898;28;20053;-54
2023/04/01 01:21:34;;;;;;;16.95;7.75;;;;;;;;;;5023184;28;20053;-54
2023/04/01 01:24:09;;;;;;;13.38;6.53;;;;;;;;;;5022721;28;20527;-54
2023/04/01 01:26:51;;;;;;;10.43;5.33;;;;;;;;;;5020991;28;20057;-51
2023/04/01 01:29:20;;;;;;;11.32;5.53;;;;;;;;;;5023393;28;20069;-54
2023/04/01 01:32:01;;;;;;;12.18;5.40;;;;;;;;;;5021490;28;20057;-55
2023/04/01 01:34:28;;;;;;;13.90;5.20;;;;;;;;;;5024061;28;20050;-53
2023/04/01 01:36:56;;;;;;;8.80;4.68;;;;;;;;;;5027714;28;20049;-51
2023/04/01 01:39:27;;;;;;;9.45;4.53;;;;;;;;;;5024562;28;21976;-53
2023/04/01 01:41:55;;;;;;;7.47;4.70;;;;;;;;;;5027139;28;20208;-54
2023/04/01 01:44:23;;;;;;;10.50;5.53;;;;;;;;;;5026350;28;20054;-53
2023/04/01 01:46:49;;;;;;;10.80;4.78;;;;;;;;;;5025303;28;20054;-53
2023/04/01 01:49:17;;;;;;;9.40;4.43;;;;;;;;;;5024210;28;20078;-53
2023/04/01 01:51:43;;;;;;;8.85;3.72;;;;;;;;;;5025123;28;20506;-53
2023/04/01 01:54:14;;;;;;;7.38;3.80;;;;;;;;;;5026781;28;20516;-55
2023/04/01 01:56:42;;;;;;;8.93;3.95;;;;;;;;;;5024724;28;20046;-51
2023/04/01 01:59:09;;;;;;;10.55;3.92;;;;;;;;;;5025994;28;20058;-53
2023/04/01 02:01:38;;;;;;;5.57;3.72;;;;;;;;;;5025904;28;20054;-52
2023/04/01 02:04:04;;;;;;;5.50;3.70;;;;;;;;;;5025268;28;20516;-52
2023/04/01 02:06:34;;;;;;;6.38;3.88;;;;;;;;;;5028434;28;20050;-53
2023/04/01 02:09:02;;;;;;;5.22;2.88;;;;;;;;;;5024791;28;20834;-54
2023/04/01 02:11:35;;;;;;;5.05;2.95;;;;;;;;;;5025998;28;20133;-51
2023/04/01 02:14:05;;;;;;;6.22;3.33;;;;;;;;;;5025724;28;20054;-51
2023/04/01 02:16:39;;;;;;;6.78;3.65;;;;;;;;;;5027630;28;20144;-52
2023/04/01 02:19:09;;;;;;;5.88;3.15;;;;;;;;;;5024088;28;20133;-51
2023/04/01 02:21:36;;;;;;;4.82;2.53;;;;;;;;;;5022144;28;20042;-52
2023/04/01 02:24:05;;;;;;;5.30;3.40;;;;;;;;;;5024745;28;20070;-53
2023/04/01 02:26:31;;;;;;;4.93;3.38;;;;;;;;;;5030027;28;20148;-52
2023/04/01 02:28:58;;;;;;;6.03;2.78;;;;;;;;;;5034916;28;20069;-49
2023/04/01 02:31:25;;;;;;;7.75;4.18;;;;;;;;;;5026388;28;20649;-54
2023/04/01 02:33:51;;;;;;;6.78;2.95;;;;;;;;;;5024390;28;20049;-51
2023/04/01 02:36:18;;;;;;;6.13;3.67;;;;;;;;;;5027161;28;20641;-53
2023/04/01 02:38:45;;;;;;;5.55;2.90;;;;;;;;;;5024717;28;20058;-50
2023/04/01 02:41:11;;;;;;;6.28;3.22;;;;;;;;;;5025245;28;20054;-54
2023/04/01 02:43:38;;;;;;;7.60;3.35;;;;;;;;;;5023859;28;20057;-53
2023/04/01 02:46:05;;;;;;;7.45;3.78;;;;;;;;;;5024981;28;20056;-51
2023/04/01 02:48:31;;;;;;;5.70;3.47;;;;;;;;;;5024290;28;20053;-49
2023/04/01 02:50:58;;;;;;;4.63;3.35;;;;;;;;;;5025256;28;20444;-50
2023/04/01 02:53:24;;;;;;;5.13;3.53;;;;;;;;;;5025960;28;20057;-52
2023/04/01 02:55:52;;;;;;;6.43;3.53;;;;;;;;;;5025525;28;20092;-54
2023/04/01 02:58:18;;;;;;;8.77;3.90;;;;;;;;;;5025782;28;20085;-51
2023/04/01 03:00:44;;;;;;;5.38;3.33;;;;;;;;;;5026550;28;20089;-54
2023/04/01 03:03:13;;;;;;;5.22;3.15;;;;;;;;;;5027286;28;20050;-50
2023/04/01 03:05:40;;;;;;;5.15;3.25;;;;;;;;;;5025905;28;21024;-52
2023/04/01 03:08:06;;;;;;;9.23;3.75;;;;;;;;;;5027026;28;20057;-52
2023/04/01 03:10:32;;;;;;;4.55;3.08;;;;;;;;;;5025447;28;20104;-49
2023/04/01 03:12:59;;;;;;;3.97;2.65;;;;;;;;;;5025752;28;20062;-51
2023/04/01 03:15:25;;;;;;;4.88;3.13;;;;;;;;;;5017479;28;20080;-54
2023/04/01 03:17:51;;;;;;;3.90;2.85;;;;;;;;;;5022096;28;20116;-52
2023/04/01 03:20:19;;;;;;;7.93;3.70;;;;;;;;;;5003294;28;20137;-53
2023/04/01 03:22:45;;;;;;;5.78;4.22;;;;;;;;;;5023055;28;20072;-54
2023/04/01 03:25:12;;;;;;;7.95;4.82;;;;;;;;;;5025693;28;20905;-51
2023/04/01 03:27:39;;;;;;;9.18;5.13;;;;;;;;;;5025244;28;20554;-52
2023/04/01 03:30:06;;;;;;;10.63;6.30;;;;;;;;;;5027133;28;20108;-52
2023/04/01 03:32:32;;;;;;;10.20;6.20;;;;;;;;;;5024910;28;20058;-51
2023/04/01 03:34:59;;;;;;;13.95;7.40;;;;;;;;;;5025379;28;20054;-52
2023/04/01 03:37:25;;;;;;;10.50;6.55;;;;;;;;;;5025954;28;20049;-49
2023/04/01 03:39:51;;;;;;;13.27;7.35;;;;;;;;;;5025818;28;20452;-49
2023/04/01 03:42:18;;;;;;;14.90;8.48;;;;;;;;;;5024350;28;20058;-49
2023/04/01 03:44:45;;;;;;;14.10;9.10;;;;;;;;;;5024246;28;20050;-51
2023/04/01 03:47:11;;;;;;;15.70;9.50;;;;;;;;;;5024642;28;20050;-49
2023/04/01 03:49:37;;;;;;;18.00;10.32;;;;;;;;;;5025819;28;20149;-52
2023/04/01 03:52:03;;;;;;;18.70;10.52;;;;;;;;;;5023602;28;20076;-50
2023/04/01 03:54:30;;;;;;;17.35;10.80;;;;;;;;;;5025943;28;20982;-49
2023/04/01 03:56:57;;;;;;;20.00;10.93;;;;;;;;;;5023499;28;20046;-52
2023/04/01 03:59:24;;;;;;;25.35;11.43;;;;;;;;;;5024912;28;20056;-53
2023/04/01 04:01:50;;;;;;;23.75;10.90;;;;;;;;;;5025786;28;20444;-51
2023/04/01 04:04:17;;;;;;;21.77;12.05;;;;;;;;;;5024754;28;20510;-53
2023/04/01 04:06:44;;;;;;;26.27;11.43;;;;;;;;;;5026438;28;20050;-49
2023/04/01 04:09:10;;;;;;;22.23;10.82;;;;;;;;;;5025888;28;20502;-53
2023/04/01 04:11:36;;;;;;;20.15;10.45;;;;;;;;;;5024873;28;20049;-50
2023/04/01 04:14:03;;;;;;;18.80;9.80;;;;;;;;;;5022838;28;20062;-52
2023/04/01 04:16:29;;;;;;;19.10;10.05;;;;;;;;;;5024290;28;20053;-52
2023/04/01 04:18:56;;;;;;;21.45;10.65;;;;;;;;;;5021398;28;20057;-50
2023/04/01 04:21:22;;;;;;;16.50;9.63;;;;;;;;;;5024438;28;20054;-50
2023/04/01 04:23:48;;;;;;;18.17;10.00;;;;;;;;;;5025822;28;20053;-54
2023/04/01 04:26:15;;;;;;;19.05;9.68;;;;;;;;;;5022905;28;20046;-53
2023/04/01 04:28:41;;;;;;;17.95;8.13;;;;;;;;;;5024883;28;20049;-51
2023/04/01 04:31:07;;;;;;;16.25;9.23;;;;;;;;;;5023204;28;20049;-55
2023/04/01 04:33:34;;;;;;;18.52;8.70;;;;;;;;;;5024478;28;20061;-54
2023/04/01 04:36:02;;;;;;;15.85;7.93;;;;;;;;;;5025003;28;20141;-52
2023/04/01 04:38:28;;;;;;;14.93;8.45;;;;;;;;;;5025076;28;20077;-49
2023/04/01 04:40:55;;;;;;;17.13;8.25;;;;;;;;;;5022899;28;20053;-50
2023/04/01 04:43:21;;;;;;;17.48;7.32;;;;;;;;;;5025513;28;20567;-49
2023/04/01 04:45:48;;;;;;;11.30;6.90;;;;;;;;;;5018603;28;20150;-52
2023/04/01 04:48:18;;;;;;;12.07;5.65;;;;;;;;;;5020407;28;20083;-50
2023/04/01 04:50:48;;;;;;;11.82;5.75;;;;;;;;;;5020173;28;20543;-50
2023/04/01 04:53:16;;;;;;;13.20;5.63;;;;;;;;;;5026228;28;20062;-50
2023/04/01 04:55:43;;;;;;;8.80;4.78;;;;;;;;;;5021853;28;20526;-54
2023/04/01 04:58:09;;;;;;;10.18;5.45;;;;;;;;;;5024160;28;20073;-50
2023/04/01 05:00:35;;;;;;;11.32;5.82;;;;;;;;;;5023886;28;20113;-51
2023/04/01 05:03:02;;;;;;;10.00;5.10;;;;;;;;;;5022428;28;20504;-51
2023/04/01 05:05:28;;;;;;;10.75;5.00;;;;;;;;;;5023477;28;20748;-51
2023/04/01 05:07:55;;;;;;;10.38;5.00;;;;;;;;;;5025243;28;20056;-51
2023/04/01 05:10:21;;;;;;;10.95;5.47;;;;;;;;;;5019500;28;20050;-49
2023/04/01 05:12:47;;;;;;;11.75;6.53;;;;;;;;;;5024963;28;20050;-53
2023/04/01 05:15:14;;;;;;;12.65;7.47;;;;;;;;;;5022501;28;20050;-50
2023/04/01 05:17:41;;;;;;;13.90;6.78;;;;;;;;;;5021708;28;20050;-49
2023/04/01 05:20:07;;;;;;;12.63;7.05;;;;;;;;;;5021224;28;20058;-49
2023/04/01 05:22:34;;;;;;;16.40;7.10;;;;;;;;;;5022631;28;20484;-50
2023/04/01 05:25:00;;;;;;;13.00;7.30;;;;;;;;;;5024401;28;20050;-52
2023/04/01 05:27:26;;;;;;;13.25;7.10;;;;;;;;;;5023762;28;20054;-53
2023/04/01 05:29:53;;;;;;;14.10;7.30;;;;;;;;;;5024052;28;20180;-55
2023/04/01 05:32:19;;;;;;;13.65;6.60;;;;;;;;;;5022877;28;20555;-55
2023/04/01 05:34:46;;;;;;;14.70;7.00;;;;;;;;;;5019223;28;20544;-51
2023/04/01 05:37:12;;;;;;;13.38;6.30;;;;;;;;;;5022981;28;20478;-58
2023/04/01 05:39:38;;;;;;;9.48;6.30;;;;;;;;;;5022957;28;20870;-54
2023/04/01 05:42:05;;;;;;;9.10;5.50;;;;;;;;;;5025071;28;20158;-56
2023/04/01 05:44:32;;;;;;;8.77;5.13;;;;;;;;;;5020380;28;20117;-51
2023/04/01 05:46:58;;;;;;;10.40;4.90;;;;;;;;;;5020455;28;20057;-51
2023/04/01 05:49:24;;;;;;;9.50;5.05;;;;;;;;;;5022178;28;20751;-51
2023/04/01 05:51:54;;;;;;;9.57;4.57;;;;;;;;;;5022894;28;20551;-51
2023/04/01 05:54:20;;;;;;;9.00;4.13;;;;;;;;;;5023144;28;20589;-50
2023/04/01 05:56:46;;;;;;;8.52;4.60;;;;;;;;;;5024503;28;20058;-51
2023/04/01 05:59:14;;;;;;;6.93;3.90;;;;;;;;;;5022821;28;20488;-55
2023/04/01 06:01:40;;;;;;;8.13;4.53;;;;;;;;;;5021556;28;20049;-50
2023/04/01 06:04:10;;;;;;;9.10;4.75;;;;;;;;;;5020002;28;20050;-52
2023/04/01 06:06:36;;;;;;;8.93;4.63;;;;;;;;;;5016874;28;20073;-50
2023/04/01 06:09:13;;;;;;;9.05;4.88;;;;;;;;;;5023418;28;20508;-50
2023/04/01 06:11:45;;;;;;;11.25;5.93;;;;;;;;;;5018142;28;20045;-50
2023/04/01 06:14:34;;;;;;;12.18;6.45;;;;;;;;;;5020821;28;20061;-53
2023/04/01 06:17:06;;;;;;;10.23;5.60;;;;;;;;;;5011624;28;20532;-55
2023/04/01 06:19:56;;;;;;;11.65;5.72;;;;;;;;;;5024692;28;20515;-55
2023/04/01 06:22:35;;;;;;;8.20;4.70;;;;;;;;;;5027311;28;20524;-50
2023/04/01 06:25:05;;;;;;;11.32;5.85;;;;;;;;;;5025791;28;20054;-50
2023/04/01 06:27:48;;;;;;;9.30;4.80;;;;;;;;;;5029321;28;20054;-53
2023/04/01 06:30:24;;;;;;;11.40;5.30;;;;;;;;;;5024396;28;20065;-54
2023/04/01 06:33:00;;;;;;;9.07;4.65;;;;;;;;;;5008393;28;20046;-54
2023/04/01 06:35:41;;;;;;;8.75;4.78;;;;;;;;;;5027172;28;20108;-53
2023/04/01 06:38:07;;;;;;;8.43;4.82;;;;;;;;;;5007858;28;20104;-51
2023/04/01 06:40:42;;;;;;;9.50;4.47;;;;;;;;;;5019833;28;20133;-49
2023/04/01 06:43:27;;;;;;;7.05;3.63;;;;;;;;;;5024405;28;20057;-49
2023/04/01 06:46:20;;;;;;;6.97;4.32;;;;;;;;;;5025110;28;20420;-52
2023/04/01 06:48:46;;;;;;;4.57;2.42;;;;;;;;;;4987763;28;20054;-52
2023/04/01 06:51:22;;;;;;;6.75;2.63;;;;;;;;;;5026208;28;20137;-54
2023/04/01 06:53:51;;;;;;;5.30;2.70;;;;;;;;;;5025846;28;20716;-53
2023/04/01 06:56:19;;;;;;;5.13;2.70;;;;;;;;;;5032314;28;20515;-52
2023/04/01 06:58:52;;;;;;;4.72;2.65;;;;;;;;;;5027232;28;20050;-56
2023/04/01 07:01:44;;;;;;;5.53;2.88;;;;;;;;;;5029464;28;20533;-53
2023/04/01 07:04:13;;;;;;;4.90;2.88;;;;;;;;;;5021804;28;20518;-55
2023/04/01 07:06:48;;;;;;;3.67;2.70;;;;;;;;;;5024812;28;20057;-53
2023/04/01 07:09:19;;;;;;;4.68;3.15;;;;;;;;;;5021704;28;20082;-54
2023/04/01 07:11:46;;;;;;;6.13;3.63;;;;;;;;;;5020993;28;20149;-56
2023/04/01 07:14:20;;;;;;;5.85;3.60;;;;;;;;;;5026096;28;20050;-53
2023/04/01 07:16:58;;;;;;;8.77;4.15;;;;;;;;;;5024597;28;20062;-56
2023/04/01 07:19:54;;;;;;;8.60;4.88;;;;;;;;;;5029738;28;20145;-51
2023/04/01 07:22:30;;;;;;;9.38;5.22;;;;;;;;;;4992644;28;20647;-52
2023/04/01 07:24:57;;;;;;;9.90;5.40;;;;;;;;;;5025530;28;20054;-55
2023/04/01 07:27:24;;;;;;;7.72;4.95;;;;;;;;;;5017620;28;20180;-51
2023/04/01 07:29:50;;;;;;;8.68;5.72;;;;;;;;;;5023738;28;20034;-55
2023/04/01 07:32:30;;;;;;;11.88;5.68;;;;;;;;;;5022574;28;20050;-54
2023/04/01 07:35:06;;;;;;;10.88;6.15;;;;;;;;;;5026349;28;20049;-54
2023/04/01 07:37:36;;;;;;;10.38;6.15;;;;;;;;;;5041281;28;20050;-56
2023/04/01 07:40:14;;;;;;;8.77;5.82;;;;;;;;;;5026610;28;20081;-53
2023/04/01 07:42:50;;;;;;;11.02;6.25;;;;;;;;;;5025037;28;20096;-56
2023/04/01 07:45:16;;;;;;;8.88;5.63;;;;;;;;;;5025632;28;20137;-55
2023/04/01 07:47:55;;;;;;;12.68;6.93;;;;;;;;;;5020661;28;20057;-50
2023/04/01 07:50:26;;;;;;;13.63;6.60;;;;;;;;;;5023889;28;20360;-51
2023/04/01 07:53:07;;;;;;;13.52;7.50;;;;;;;;;;5026288;28;20054;-52
2023/04/01 07:55:36;;;;;;;14.02;7.32;;;;;;;;;;5024615;28;20053;-55
2023/04/01 07:58:12;;;;;;;10.45;6.35;;;;;;;;;;5024291;28;20049;-51
2023/04/01 08:00:38;;;;;;;;;;;;;;;;;;5021986;28;20061;-50
2023/04/01 08:03:14;;;;;;;12.52;7.38;;;;;;;;;;5025772;28;45866;-51
2023/04/01 08:05:46;;;;;;;13.68;7.47;;;;;;;;;;5026563;28;20050;-51
2023/04/01 08:08:16;;;;;;;19.77;8.10;;;;;;;;;;5023535;28;20491;-53
2023/04/01 08:10:45;;;;;;;14.57;7.60;;;;;;;;;;5025904;28;20054;-56
2023/04/01 08:13:41;;;;;;;12.88;7.25;;;;;;;;;;5026457;28;20064;-54
2023/04/01 08:16:12;;;;;;;12.20;6.85;;;;;;;;;;5004825;28;20046;-52
2023/04/01 08:18:58;;;;;;;12.60;6.68;;;;;;;;;;5025193;28;20503;-53
2023/04/01 08:21:44;;;;;;;12.68;6.75;;;;;;;;;;5023146;28;20117;-53
2023/04/01 08:24:16;;;;;;;14.25;6.80;;;;;;;;;;5006013;28;20046;-51
2023/04/01 08:26:48;;;;;;;13.27;7.03;;;;;;;;;;5005543;28;20065;-54
2023/04/01 08:29:52;;;;;;;12.57;7.47;;;;;;;;;;5014909;28;20136;-55
2023/04/01 08:32:23;;;;;;;11.68;6.70;;;;;;;;;;4962961;28;20485;-53
2023/04/01 08:35:06;;;;;;;14.05;6.30;;;;;;;;;;4946279;28;20062;-53
2023/04/01 08:37:35;;;;;;;37.90;9.82;;;;;;;;;;4962515;28;20059;-60
2023/04/01 08:40:13;;;;;;;16.30;6.57;;;;;;;;;;4953147;28;20047;-51
2023/04/01 08:42:55;;;;;;;10.95;6.65;;;;;;;;;;4960698;28;20385;-54
2023/04/01 08:45:30;;;;;;;14.50;6.72;;;;;;;;;;4964423;28;20140;-50
2023/04/01 08:47:57;;;;;;;;;;;;;;;;;;4961731;28;20070;-52
2023/04/01 08:50:24;;;;;;;11.10;6.50;;;;;;;;;;4963428;28;46550;-50
2023/04/01 08:53:12;;;;;;;14.68;8.10;;;;;;;;;;4964158;28;20063;-51
2023/04/01 08:55:42;;;;;;;12.23;7.00;;;;;;;;;;4961468;28;20071;-54
2023/04/01 08:58:27;;;;;;;12.98;6.90;;;;;;;;;;4962149;28;20055;-52
2023/04/01 09:00:57;;;;;;;12.02;6.68;;;;;;;;;;4963171;28;20043;-54
2023/04/01 09:03:35;;;;;;;10.07;6.15;;;;;;;;;;4999555;28;20050;-50
2023/04/01 09:06:04;;;;;;;11.68;7.88;;;;;;;;;;5024870;28;20532;-53
2023/04/01 09:08:49;;;;;;;14.27;7.35;;;;;;;;;;5024504;28;20053;-49
2023/04/01 09:11:25;;;;;;;11.43;6.70;;;;;;;;;;5024790;28;20060;-53
2023/04/01 09:13:58;;;;;;;10.10;5.28;;;;;;;;;;5025346;28;20060;-51
2023/04/01 09:16:40;;;;;;;8.98;5.97;;;;;;;;;;5022966;28;20570;-52
2023/04/01 09:19:06;;;;;;;10.20;5.63;;;;;;;;;;5025454;28;20814;-54
2023/04/01 09:21:35;;;;;;;7.35;5.00;;;;;;;;;;5025840;28;20871;-56
2023/04/01 09:24:20;;;;;;;9.23;4.80;;;;;;;;;;5025531;28;20534;-53
2023/04/01 09:27:05;;;;;;;9.07;5.00;;;;;;;;;;5025517;28;20423;-50
2023/04/01 09:29:47;;;;;;;9.38;5.43;;;;;;;;;;5024474;28;20061;-51
2023/04/01 09:32:16;;;;;;;9.90;5.78;;;;;;;;;;5023595;28;20050;-54
2023/04/01 09:34:46;;;;;;;9.35;5.95;;;;;;;;;;5024770;28;20047;-50
2023/04/01 09:37:15;;;;;;;14.27;6.03;;;;;;;;;;5024768;28;20496;-53
2023/04/01 09:39:41;;;;;;;9.68;6.18;;;;;;;;;;5024916;28;20049;-52
2023/04/01 09:42:23;;;;;;;10.57;6.45;;;;;;;;;;5024847;28;20046;-52
2023/04/01 09:45:19;;;;;;;12.68;7.28;;;;;;;;;;5024290;28;20165;-52
2023/04/01 09:48:00;;;;;;;14.32;6.53;;;;;;;;;;4924364;29;20454;-53
2023/04/01 09:50:27;;;;;;;13.00;8.20;;;;;;;;;;4924942;29;20132;-52
2023/04/01 09:53:12;;;;;;;15.30;8.13;;;;;;;;;;4924573;29;20056;-53
2023/04/01 09:55:53;;;;;;;13.20;8.18;;;;;;;;;;4925739;29;20052;-52
2023/04/01 09:58:22;;;;;;;13.95;8.77;;;;;;;;;;4927800;29;20056;-52
2023/04/01 10:01:00;;;;;;;12.85;8.15;;;;;;;;;;4928021;29;20570;-52
2023/04/01 10:03:45;;;;;;;11.77;7.13;;;;;;;;;;4928241;29;20548;-50
2023/04/01 10:06:20;;;;;;;9.20;6.33;;;;;;;;;;4928417;29;20060;-51
2023/04/01 10:09:05;;;;;;;10.93;7.20;;;;;;;;;;4928323;29;20145;-52
2023/04/01 10:11:50;;;;;;;10.93;6.97;;;;;;;;;;4926392;29;20164;-55
2023/04/01 10:14:35;;;;;;;11.03;7.07;;;;;;;;;;4927067;29;20052;-52
2023/04/01 10:17:31;;;;;;;12.30;7.43;;;;;;;;;;4926327;29;20052;-50
2023/04/01 10:20:12;;;;;;;11.32;7.32;;;;;;;;;;4927396;29;20147;-53
2023/04/01 10:22:48;;;;;;;12.52;7.32;;;;;;;;;;4927911;29;20052;-55
2023/04/01 10:25:20;;;;;;;11.90;7.28;;;;;;;;;;5016760;28;20146;-54
2023/04/01 10:27:53;;;;;;;11.50;6.93;;;;;;;;;;5027065;28;20518;-54
2023/04/01 10:30:20;;;;;;;10.82;6.43;;;;;;;;;;5027621;28;20054;-56
2023/04/01 10:32:46;;;;;;;11.35;6.97;;;;;;;;;;5027335;28;20037;-55
2023/04/01 10:35:21;;;;;;;10.55;6.47;;;;;;;;;;5027728;28;20140;-56
2023/04/01 10:37:51;;;;;;;11.48;6.90;;;;;;;;;;5027447;28;20443;-53
2023/04/01 10:40:18;;;;;;;12.27;7.00;;;;;;;;;;5027670;28;20050;-54
2023/04/01 10:42:50;;;;;;;9.48;6.32;;;;;;;;;;5026756;28;20058;-53
2023/04/01 10:45:16;;;;;;;8.93;5.93;;;;;;;;;;5027743;28;20070;-53
2023/04/01 10:48:01;;;;;;;11.60;5.82;;;;;;;;;;5026811;28;20057;-55
2023/04/01 10:50:30;;;;;;;8.98;5.30;;;;;;;;;;5026424;28;20065;-54
2023/04/01 10:53:03;;;;;;;7.28;4.55;;;;;;;;;;5027302;28;20544;-53
2023/04/01 10:55:50;;;;;;;5.20;3.70;;;;;;;;;;5027506;28;20060;-52
2023/04/01 10:58:17;;;;;;;7.13;4.38;;;;;;;;;;5026950;28;20170;-54
2023/04/01 11:00:46;;;;;;;4.80;3.33;;;;;;;;;;5026973;28;20054;-53
2023/04/01 11:03:18;;;;;;;4.60;3.05;;;;;;;;;;5026910;28;20049;-52
2023/04/01 11:06:03;;;;;;;4.55;3.22;;;;;;;;;;5026339;28;20472;-55
2023/04/01 11:08:56;;;;;;;3.03;2.33;;;;;;;;;;5026056;28;20050;-54
2023/04/01 11:11:26;;;;;;;3.20;2.45;;;;;;;;;;5022031;28;20065;-52
2023/04/01 11:13:55;;;;;;;4.72;2.70;;;;;;;;;;5027468;28;20046;-51
2023/04/01 11:16:21;;;;;;;3.83;2.90;;;;;;;;;;5027265;28;20057;-53
2023/04/01 11:19:00;;;;;;;4.97;3.25;;;;;;;;;;5026797;28;20058;-54
2023/04/01 11:21:42;;;;;;;5.03;3.22;;;;;;;;;;5026719;28;20144;-52
2023/04/01 11:24:25;;;;;;;3.80;3.17;;;;;;;;;;5027231;28;20104;-49
2023/04/01 11:27:10;;;;;;;3.08;2.33;;;;;;;;;;5026948;28;20576;-56
2023/04/01 11:29:54;;;;;;;3.40;2.83;;;;;;;;;;5026767;28;20100;-49
2023/04/01 11:32:44;;;;;;;3.65;2.40;;;;;;;;;;5026991;28;20602;-50
2023/04/01 11:35:14;;;;;;;4.53;2.40;;;;;;;;;;5026070;28;20057;-54
2023/04/01 11:37:43;;;;;;;3.67;2.83;;;;;;;;;;5026969;28;20053;-53
2023/04/01 11:40:12;;;;;;;3.53;2.72;;;;;;;;;;5026791;28;20060;-52
2023/04/01 11:42:41;;;;;;;3.67;2.47;;;;;;;;;;5026114;28;20064;-50
2023/04/01 11:45:16;;;;;;;3.38;2.70;;;;;;;;;;5015442;28;20050;-53
2023/04/01 11:47:45;;;;;;;2.67;2.15;;;;;;;;;;5006238;28;20057;-54
2023/04/01 11:50:29;;;;;;;2.65;2.03;;;;;;;;;;5015435;28;20562;-56
2023/04/01 11:53:05;;;;;;;3.30;2.60;;;;;;;;;;5003697;28;20895;-54
2023/04/01 11:55:47;;;;;;;3.50;3.05;;;;;;;;;;5024891;28;20046;-55
2023/04/01 11:58:32;;;;;;;6.05;4.25;;;;;;;;;;5026595;28;20050;-49
2023/04/01 12:00:59;;;;;;;6.22;4.60;;;;;;;;;;5019433;28;20165;-52
2023/04/01 12:03:31;;;;;;;5.90;4.70;;;;;;;;;;5025579;28;20082;-55
2023/04/01 12:06:01;;;;;;;6.07;4.70;;;;;;;;;;5035259;28;20061;-55
2023/04/01 12:09:03;;;;;;;6.45;4.90;;;;;;;;;;5025798;28;20046;-55
2023/04/01 12:11:41;;;;;;;6.38;4.80;;;;;;;;;;4924809;28;20424;-56
2023/04/01 12:14:21;;;;;;;7.70;4.97;;;;;;;;;;4924820;29;20060;-54
2023/04/01 12:16:50;;;;;;;8.30;6.00;;;;;;;;;;4925135;28;20170;-56
2023/04/01 12:19:26;;;;;;;8.45;6.38;;;;;;;;;;4925082;28;20056;-56
2023/04/01 12:21:52;;;;;;;11.73;7.53;;;;;;;;;;4926473;29;20059;-54
2023/04/01 12:24:24;;;;;;;14.43;8.25;;;;;;;;;;4923963;29;20052;-54
2023/04/01 12:26:54;;;;;;;12.88;8.75;;;;;;;;;;4925813;29;20056;-53
2023/04/01 12:29:23;;;;;;;11.73;7.95;;;;;;;;;;4923037;29;20139;-55
2023/04/01 12:31:55;;;;;;;11.90;7.78;;;;;;;;;;4924682;29;20048;-53
2023/04/01 12:34:21;;;;;;;13.50;7.95;;;;;;;;;;4925554;29;20052;-53
2023/04/01 12:37:07;;;;;;;14.25;8.55;;;;;;;;;;4923467;29;20113;-54
2023/04/01 12:39:34;;;;;;;;;;;;;;;;;;4924588;29;20052;-52
2023/04/01 12:42:19;;;;;;;14.57;9.32;;;;;;;;;;4927028;28;46516;-52
2023/04/01 12:44:55;;;;;;;21.63;10.23;;;;;;;;;;4941917;28;20101;-50
2023/04/01 12:47:40;;;;;;;18.83;10.15;;;;;;;;;;5025847;28;20049;-51
2023/04/01 12:50:13;;;;;;;17.83;10.57;;;;;;;;;;5038944;28;20087;-52
2023/04/01 12:52:39;;;;;;;20.60;11.35;;;;;;;;;;5031248;28;20518;-51
2023/04/01 12:55:18;;;;;;;16.35;8.43;;;;;;;;;;5021962;28;20054;-53
2023/04/01 12:57:51;;;;;;;12.85;8.75;;;;;;;;;;5023631;28;20137;-52
2023/04/01 13:00:20;;;;;;;18.13;9.48;;;;;;;;;;5020411;28;20054;-51
2023/04/01 13:02:50;;;;;;;15.10;8.43;;;;;;;;;;5025170;28;20054;-49
2023/04/01 13:05:19;;;;;;;12.05;7.90;;;;;;;;;;5025126;28;20054;-49
2023/04/01 13:07:56;;;;;;;12.05;7.40;;;;;;;;;;5024973;28;20064;-53
2023/04/01 13:10:32;;;;;;;11.32;6.22;;;;;;;;;;5024369;28;20058;-51
2023/04/01 13:13:16;;;;;;;7.95;5.57;;;;;;;;;;5024373;28;20554;-51
2023/04/01 13:15:52;;;;;;;8.13;5.32;;;;;;;;;;5023642;28;20054;-50
2023/04/01 13:18:28;;;;;;;8.20;5.93;;;;;;;;;;5024739;28;20579;-51
2023/04/01 13:21:00;;;;;;;9.65;6.22;;;;;;;;;;5024477;28;20562;-50
2023/04/01 13:23:33;;;;;;;8.27;6.05;;;;;;;;;;5017773;28;20522;-51
2023/04/01 13:26:18;;;;;;;10.75;6.25;;;;;;;;;;5009372;28;20046;-49
2023/04/01 13:28:44;;;;;;;9.20;6.25;;;;;;;;;;5018892;28;20454;-51
2023/04/01 13:31:23;;;;;;;8.02;5.45;;;;;;;;;;5008929;28;20050;-49
2023/04/01 13:33:58;;;;;;;8.82;5.68;;;;;;;;;;5009549;28;20062;-49
2023/04/01 13:36:33;;;;;;;8.35;5.20;;;;;;;;;;5010502;28;20062;-52
2023/04/01 13:39:09;;;;;;;8.07;4.68;;;;;;;;;;5024864;28;20108;-55
2023/04/01 13:41:36;;;;;;;8.68;4.80;;;;;;;;;;5028404;28;20054;-53
2023/04/01 13:44:09;;;;;;;7.20;5.10;;;;;;;;;;5026986;28;20409;-52
2023/04/01 13:46:49;;;;;;;8.75;5.18;;;;;;;;;;5028143;28;20042;-50
2023/04/01 13:49:20;;;;;;;7.85;5.68;;;;;;;;;;5026590;28;20052;-52
2023/04/01 13:51:57;;;;;;;7.32;5.40;;;;;;;;;;5026006;28;20109;-51
2023/04/01 13:54:24;;;;;;;11.30;5.53;;;;;;;;;;5009313;28;20050;-49
2023/04/01 13:57:08;;;;;;;8.65;6.32;;;;;;;;;;5007930;28;20065;-53
2023/04/01 13:59:53;;;;;;;9.15;5.78;;;;;;;;;;5027149;28;20042;-53
2023/04/01 14:02:26;;;;;;;8.87;6.33;;;;;;;;;;5020342;28;20144;-51
2023/04/01 14:04:55;;;;;;;9.65;6.20;;;;;;;;;;5024727;28;20060;-52
2023/04/01 14:07:25;;;;;;;8.07;5.25;;;;;;;;;;5005737;28;20046;-53
2023/04/01 14:09:54;;;;;;;6.95;4.90;;;;;;;;;;5006864;28;20069;-50
2023/04/01 14:12:36;;;;;;;7.05;4.72;;;;;;;;;;5015323;28;20695;-52
2023/04/01 14:15:21;;;;;;;7.28;5.00;;;;;;;;;;5024109;28;20184;-52
2023/04/01 14:17:50;;;;;;;8.77;5.53;;;;;;;;;;5020454;28;20054;-52
2023/04/01 14:20:22;;;;;;;6.90;4.93;;;;;;;;;;5020675;28;20086;-54
2023/04/01 14:22:57;;;;;;;7.22;4.90;;;;;;;;;;5022917;28;20504;-55
2023/04/01 14:25:42;;;;;;;5.95;4.53;;;;;;;;;;5009170;28;20089;-53
2023/04/01 14:28:16;;;;;;;9.27;5.78;;;;;;;;;;5021971;28;20149;-54
2023/04/01 14:30:51;;;;;;;5.82;4.57;;;;;;;;;;5018354;28;20806;-53
2023/04/01 14:33:36;;;;;;;5.60;4.30;;;;;;;;;;5022474;28;20050;-56
2023/04/01 14:36:03;;;;;;;5.60;4.18;;;;;;;;;;5022513;28;20061;-55
2023/04/01 14:38:29;;;;;;;5.35;4.40;;;;;;;;;;5022875;28;20060;-51
2023/04/01 14:40:58;;;;;;;5.90;4.70;;;;;;;;;;5021305;28;20488;-53
2023/04/01 14:43:34;;;;;;;5.57;4.07;;;;;;;;;;5023087;28;20106;-53
2023/04/01 14:46:03;;;;;;;5.82;4.30;;;;;;;;;;5020817;28;20054;-53
2023/04/01 14:48:33;;;;;;;5.65;4.43;;;;;;;;;;5020310;28;20073;-55
2023/04/01 14:51:16;;;;;;;5.75;4.55;;;;;;;;;;5021867;28;20791;-51
2023/04/01 14:54:11;;;;;;;6.03;4.28;;;;;;;;;;5022757;28;20449;-53
2023/04/01 14:56:48;;;;;;;7.32;4.78;;;;;;;;;;5003435;28;20422;-53
2023/04/01 14:59:20;;;;;;;6.32;4.38;;;;;;;;;;5016893;28;20081;-52
2023/04/01 15:01:55;;;;;;;6.85;4.18;;;;;;;;;;5022823;28;20054;-52
2023/04/01 15:04:41;;;;;;;6.38;3.70;;;;;;;;;;5019909;28;20054;-51
2023/04/01 15:07:10;;;;;;;5.20;4.32;;;;;;;;;;5024018;28;20054;-50